sensor_id;sensor_type;location;lat;lon;timestamp;P1;durP1;ratioP1;P2;durP2;ratioP2
45326;SDS011;31062;49.678;24.560;2023-03-01T00:01:09;16.20;;;8.65;;
45326;SDS011;31062;49.678;24.560;2023-03-01T00:03:57;30.85;;;11.20;;
45326;SDS011;31062;49.678;24.560;2023-03-01T00:06:44;22.58;;;10.98;;
45326;SDS011;31062;49.678;24.560;2023-03-01T00:09:33;22.23;;;10.85;;
45326;SDS011;31062;49.678;24.560;2023-03-01T00:12:20;20.42;;;11.18;;
45326;SDS011;31062;49.678;24.560;2023-03-01T00:15:06;16.38;;;10.45;;
45326;SDS011;31062;49.678;24.560;2023-03-01T00:17:52;19.48;;;9.85;;
45326;SDS011;31062;49.678;24.560;2023-03-01T00:20:37;22.55;;;10.68;;
45326;SDS011;31062;49.678;24.560;2023-03-01T00:23:23;21.48;;;10.57;;
45326;SDS011;31062;49.678;24.560;2023-03-01T00:26:10;45.25;;;15.63;;
45326;SDS011;31062;49.678;24.560;2023-03-01T00:28:59;29.33;;;12.35;;
45326;SDS011;31062;49.678;24.560;2023-03-01T00:31:45;27.65;;;12.20;;
45326;SDS011;31062;49.678;24.560;2023-03-01T00:34:34;32.42;;;12.25;;
45326;SDS011;31062;49.678;24.560;2023-03-01T00:37:20;21.80;;;11.48;;
45326;SDS011;31062;49.678;24.560;2023-03-01T00:40:06;24.75;;;10.00;;
45326;SDS011;31062;49.678;24.560;2023-03-01T00:42:54;21.33;;;10.45;;
45326;SDS011;31062;49.678;24.560;2023-03-01T00:45:40;22.05;;;11.05;;
45326;SDS011;31062;49.678;24.560;2023-03-01T00:48:25;26.13;;;11.27;;
45326;SDS011;31062;49.678;24.560;2023-03-01T00:51:19;21.40;;;11.20;;
45326;SDS011;31062;49.678;24.560;2023-03-01T00:54:08;23.55;;;11.10;;
45326;SDS011;31062;49.678;24.560;2023-03-01T00:56:54;23.25;;;11.75;;
45326;SDS011;31062;49.678;24.560;2023-03-01T00:59:39;18.35;;;10.35;;
45326;SDS011;31062;49.678;24.560;2023-03-01T01:02:25;29.98;;;11.35;;
45326;SDS011;31062;49.678;24.560;2023-03-01T01:05:12;26.05;;;13.05;;
45326;SDS011;31062;49.678;24.560;2023-03-01T01:07:57;27.33;;;13.32;;
45326;SDS011;31062;49.678;24.560;2023-03-01T01:10:44;30.67;;;16.23;;
45326;SDS011;31062;49.678;24.560;2023-03-01T01:13:30;32.13;;;13.93;;
45326;SDS011;31062;49.678;24.560;2023-03-01T01:16:17;35.03;;;12.55;;
45326;SDS011;31062;49.678;24.560;2023-03-01T01:19:04;64.10;;;18.83;;
45326;SDS011;31062;49.678;24.560;2023-03-01T01:21:50;44.08;;;14.48;;
45326;SDS011;31062;49.678;24.560;2023-03-01T01:24:36;22.60;;;10.20;;
45326;SDS011;31062;49.678;24.560;2023-03-01T01:27:21;20.67;;;9.80;;
45326;SDS011;31062;49.678;24.560;2023-03-01T01:30:07;17.88;;;10.68;;
45326;SDS011;31062;49.678;24.560;2023-03-01T01:32:53;21.42;;;11.52;;
45326;SDS011;31062;49.678;24.560;2023-03-01T01:35:38;20.23;;;10.40;;
45326;SDS011;31062;49.678;24.560;2023-03-01T01:38:24;17.00;;;9.07;;
45326;SDS011;31062;49.678;24.560;2023-03-01T01:41:10;19.58;;;8.68;;
45326;SDS011;31062;49.678;24.560;2023-03-01T01:47:07;26.25;;;12.13;;
45326;SDS011;31062;49.678;24.560;2023-03-01T01:49:59;24.65;;;11.93;;
45326;SDS011;31062;49.678;24.560;2023-03-01T01:52:48;42.90;;;15.65;;
45326;SDS011;31062;49.678;24.560;2023-03-01T01:55:39;46.30;;;15.80;;
45326;SDS011;31062;49.678;24.560;2023-03-01T01:58:28;36.80;;;14.90;;
45326;SDS011;31062;49.678;24.560;2023-03-01T02:01:15;33.85;;;14.10;;
45326;SDS011;31062;49.678;24.560;2023-03-01T02:04:01;39.47;;;13.95;;
45326;SDS011;31062;49.678;24.560;2023-03-01T02:06:53;39.22;;;14.73;;
45326;SDS011;31062;49.678;24.560;2023-03-01T02:09:47;28.23;;;11.80;;
45326;SDS011;31062;49.678;24.560;2023-03-01T02:12:36;26.05;;;11.45;;
45326;SDS011;31062;49.678;24.560;2023-03-01T02:15:23;22.48;;;11.77;;
45326;SDS011;31062;49.678;24.560;2023-03-01T02:18:10;26.73;;;14.15;;
45326;SDS011;31062;49.678;24.560;2023-03-01T02:21:05;22.23;;;12.75;;
45326;SDS011;31062;49.678;24.560;2023-03-01T02:24:23;19.25;;;10.73;;
45326;SDS011;31062;49.678;24.560;2023-03-01T02:27:21;24.70;;;12.10;;
45326;SDS011;31062;49.678;24.560;2023-03-01T02:30:20;23.90;;;11.30;;
45326;SDS011;31062;49.678;24.560;2023-03-01T02:33:07;22.05;;;11.13;;
45326;SDS011;31062;49.678;24.560;2023-03-01T02:35:53;17.25;;;10.43;;
45326;SDS011;31062;49.678;24.560;2023-03-01T02:38:41;19.10;;;10.43;;
45326;SDS011;31062;49.678;24.560;2023-03-01T02:41:28;19.17;;;10.57;;
45326;SDS011;31062;49.678;24.560;2023-03-01T02:44:17;21.60;;;10.00;;
45326;SDS011;31062;49.678;24.560;2023-03-01T02:47:02;26.65;;;10.68;;
45326;SDS011;31062;49.678;24.560;2023-03-01T02:49:49;22.45;;;10.98;;
45326;SDS011;31062;49.678;24.560;2023-03-01T02:55:39;22.95;;;11.45;;
45326;SDS011;31062;49.678;24.560;2023-03-01T02:58:26;28.52;;;13.15;;
45326;SDS011;31062;49.678;24.560;2023-03-01T03:01:12;26.75;;;13.18;;
45326;SDS011;31062;49.678;24.560;2023-03-01T03:04:00;32.70;;;13.82;;
45326;SDS011;31062;49.678;24.560;2023-03-01T03:06:46;32.55;;;12.35;;
45326;SDS011;31062;49.678;24.560;2023-03-01T03:09:33;22.45;;;11.05;;
45326;SDS011;31062;49.678;24.560;2023-03-01T03:12:18;21.80;;;10.60;;
45326;SDS011;31062;49.678;24.560;2023-03-01T03:15:04;18.90;;;10.77;;
45326;SDS011;31062;49.678;24.560;2023-03-01T03:17:54;25.35;;;11.52;;
45326;SDS011;31062;49.678;24.560;2023-03-01T03:20:40;23.48;;;12.13;;
45326;SDS011;31062;49.678;24.560;2023-03-01T03:23:27;36.38;;;16.25;;
45326;SDS011;31062;49.678;24.560;2023-03-01T03:26:14;31.17;;;14.15;;
45326;SDS011;31062;49.678;24.560;2023-03-01T03:29:00;27.75;;;13.90;;
45326;SDS011;31062;49.678;24.560;2023-03-01T03:31:46;25.40;;;12.52;;
45326;SDS011;31062;49.678;24.560;2023-03-01T03:34:32;24.55;;;11.63;;
45326;SDS011;31062;49.678;24.560;2023-03-01T03:37:18;29.48;;;12.15;;
45326;SDS011;31062;49.678;24.560;2023-03-01T03:40:22;24.67;;;11.50;;
45326;SDS011;31062;49.678;24.560;2023-03-01T03:43:08;27.67;;;11.85;;
45326;SDS011;31062;49.678;24.560;2023-03-01T03:46:04;27.27;;;12.77;;
45326;SDS011;31062;49.678;24.560;2023-03-01T03:48:50;34.00;;;11.65;;
45326;SDS011;31062;49.678;24.560;2023-03-01T03:51:36;34.25;;;13.57;;
45326;SDS011;31062;49.678;24.560;2023-03-01T03:54:21;21.50;;;12.10;;
45326;SDS011;31062;49.678;24.560;2023-03-01T03:57:07;22.70;;;12.35;;
45326;SDS011;31062;49.678;24.560;2023-03-01T03:59:56;21.50;;;11.07;;
45326;SDS011;31062;49.678;24.560;2023-03-01T04:02:42;19.15;;;9.75;;
45326;SDS011;31062;49.678;24.560;2023-03-01T04:05:28;16.00;;;9.88;;
45326;SDS011;31062;49.678;24.560;2023-03-01T04:08:14;19.58;;;10.38;;
45326;SDS011;31062;49.678;24.560;2023-03-01T04:11:03;21.92;;;9.57;;
45326;SDS011;31062;49.678;24.560;2023-03-01T04:14:09;23.23;;;11.50;;
45326;SDS011;31062;49.678;24.560;2023-03-01T04:16:54;21.25;;;11.02;;
45326;SDS011;31062;49.678;24.560;2023-03-01T04:19:40;21.50;;;11.38;;
45326;SDS011;31062;49.678;24.560;2023-03-01T04:22:29;30.67;;;12.30;;
45326;SDS011;31062;49.678;24.560;2023-03-01T04:25:15;30.20;;;11.60;;
45326;SDS011;31062;49.678;24.560;2023-03-01T04:28:00;26.85;;;12.00;;
45326;SDS011;31062;49.678;24.560;2023-03-01T04:30:46;25.52;;;12.43;;
45326;SDS011;31062;49.678;24.560;2023-03-01T04:33:31;22.88;;;10.50;;
45326;SDS011;31062;49.678;24.560;2023-03-01T04:36:17;33.33;;;13.57;;
45326;SDS011;31062;49.678;24.560;2023-03-01T04:39:02;34.42;;;14.13;;
45326;SDS011;31062;49.678;24.560;2023-03-01T04:41:57;31.45;;;13.20;;
45326;SDS011;31062;49.678;24.560;2023-03-01T04:44:43;40.15;;;18.85;;
45326;SDS011;31062;49.678;24.560;2023-03-01T04:47:29;43.03;;;18.60;;
45326;SDS011;31062;49.678;24.560;2023-03-01T04:50:16;39.00;;;16.63;;
45326;SDS011;31062;49.678;24.560;2023-03-01T04:53:02;37.20;;;16.98;;
45326;SDS011;31062;49.678;24.560;2023-03-01T04:55:51;33.75;;;16.17;;
45326;SDS011;31062;49.678;24.560;2023-03-01T04:58:36;34.42;;;15.40;;
45326;SDS011;31062;49.678;24.560;2023-03-01T05:01:22;33.45;;;14.90;;
45326;SDS011;31062;49.678;24.560;2023-03-01T05:04:08;38.55;;;14.40;;
45326;SDS011;31062;49.678;24.560;2023-03-01T05:06:58;96.28;;;25.45;;
45326;SDS011;31062;49.678;24.560;2023-03-01T05:09:43;97.03;;;25.83;;
45326;SDS011;31062;49.678;24.560;2023-03-01T05:12:29;107.68;;;32.72;;
45326;SDS011;31062;49.678;24.560;2023-03-01T05:15:14;96.15;;;30.23;;
45326;SDS011;31062;49.678;24.560;2023-03-01T05:18:00;78.55;;;26.85;;
45326;SDS011;31062;49.678;24.560;2023-03-01T05:20:46;67.38;;;24.85;;
45326;SDS011;31062;49.678;24.560;2023-03-01T05:23:32;51.58;;;21.70;;
45326;SDS011;31062;49.678;24.560;2023-03-01T05:26:19;62.90;;;23.83;;
45326;SDS011;31062;49.678;24.560;2023-03-01T05:29:12;94.50;;;34.65;;
45326;SDS011;31062;49.678;24.560;2023-03-01T05:32:00;77.50;;;31.25;;
45326;SDS011;31062;49.678;24.560;2023-03-01T05:34:48;102.95;;;36.55;;
45326;SDS011;31062;49.678;24.560;2023-03-01T05:37:33;76.22;;;28.42;;
45326;SDS011;31062;49.678;24.560;2023-03-01T05:40:22;80.13;;;28.20;;
45326;SDS011;31062;49.678;24.560;2023-03-01T05:43:09;77.85;;;27.70;;
45326;SDS011;31062;49.678;24.560;2023-03-01T05:46:00;73.95;;;28.90;;
45326;SDS011;31062;49.678;24.560;2023-03-01T05:49:06;96.38;;;32.63;;
45326;SDS011;31062;49.678;24.560;2023-03-01T05:51:52;84.35;;;31.40;;
45326;SDS011;31062;49.678;24.560;2023-03-01T05:54:38;80.50;;;29.83;;
45326;SDS011;31062;49.678;24.560;2023-03-01T05:57:27;69.80;;;27.88;;
45326;SDS011;31062;49.678;24.560;2023-03-01T06:01:13;70.25;;;25.52;;
45326;SDS011;31062;49.678;24.560;2023-03-01T06:03:59;67.18;;;24.95;;
45326;SDS011;31062;49.678;24.560;2023-03-01T06:06:55;72.78;;;25.52;;
45326;SDS011;31062;49.678;24.560;2023-03-01T06:10:02;63.17;;;24.27;;
45326;SDS011;31062;49.678;24.560;2023-03-01T06:12:49;55.35;;;24.13;;
45326;SDS011;31062;49.678;24.560;2023-03-01T06:15:36;57.08;;;22.60;;
45326;SDS011;31062;49.678;24.560;2023-03-01T06:18:22;56.50;;;22.33;;
45326;SDS011;31062;49.678;24.560;2023-03-01T06:24:26;51.75;;;21.20;;
45326;SDS011;31062;49.678;24.560;2023-03-01T06:30:54;53.13;;;21.00;;
45326;SDS011;31062;49.678;24.560;2023-03-01T06:33:40;50.40;;;21.52;;
45326;SDS011;31062;49.678;24.560;2023-03-01T06:36:26;58.45;;;21.65;;
45326;SDS011;31062;49.678;24.560;2023-03-01T06:39:12;52.38;;;22.77;;
45326;SDS011;31062;49.678;24.560;2023-03-01T06:42:43;81.70;;;30.08;;
45326;SDS011;31062;49.678;24.560;2023-03-01T06:45:33;95.07;;;34.80;;
45326;SDS011;31062;49.678;24.560;2023-03-01T06:48:19;50.30;;;21.77;;
45326;SDS011;31062;49.678;24.560;2023-03-01T06:51:04;57.45;;;23.88;;
45326;SDS011;31062;49.678;24.560;2023-03-01T06:53:50;44.75;;;19.73;;
45326;SDS011;31062;49.678;24.560;2023-03-01T06:56:36;37.28;;;17.98;;
45326;SDS011;31062;49.678;24.560;2023-03-01T06:59:21;33.85;;;16.98;;
45326;SDS011;31062;49.678;24.560;2023-03-01T07:02:09;40.97;;;16.00;;
45326;SDS011;31062;49.678;24.560;2023-03-01T07:04:56;43.47;;;18.90;;
45326;SDS011;31062;49.678;24.560;2023-03-01T07:07:42;33.90;;;15.88;;
45326;SDS011;31062;49.678;24.560;2023-03-01T07:10:27;33.20;;;16.95;;
45326;SDS011;31062;49.678;24.560;2023-03-01T07:13:12;45.60;;;18.23;;
45326;SDS011;31062;49.678;24.560;2023-03-01T07:15:59;32.20;;;15.80;;
45326;SDS011;31062;49.678;24.560;2023-03-01T07:18:46;32.63;;;15.20;;
45326;SDS011;31062;49.678;24.560;2023-03-01T07:21:31;25.08;;;14.35;;
45326;SDS011;31062;49.678;24.560;2023-03-01T07:24:17;39.55;;;18.90;;
45326;SDS011;31062;49.678;24.560;2023-03-01T07:27:02;43.00;;;19.00;;
45326;SDS011;31062;49.678;24.560;2023-03-01T07:29:48;38.78;;;18.52;;
45326;SDS011;31062;49.678;24.560;2023-03-01T07:32:34;75.25;;;31.05;;
45326;SDS011;31062;49.678;24.560;2023-03-01T07:35:20;50.65;;;21.38;;
45326;SDS011;31062;49.678;24.560;2023-03-01T07:38:07;37.55;;;16.85;;
45326;SDS011;31062;49.678;24.560;2023-03-01T07:40:53;32.67;;;16.90;;
45326;SDS011;31062;49.678;24.560;2023-03-01T07:43:39;39.55;;;17.75;;
45326;SDS011;31062;49.678;24.560;2023-03-01T07:46:25;41.47;;;17.48;;
45326;SDS011;31062;49.678;24.560;2023-03-01T07:49:11;35.45;;;17.02;;
45326;SDS011;31062;49.678;24.560;2023-03-01T07:51:57;29.55;;;14.80;;
45326;SDS011;31062;49.678;24.560;2023-03-01T07:54:43;27.13;;;14.60;;
45326;SDS011;31062;49.678;24.560;2023-03-01T07:57:32;29.27;;;14.55;;
45326;SDS011;31062;49.678;24.560;2023-03-01T08:00:17;33.72;;;15.35;;
45326;SDS011;31062;49.678;24.560;2023-03-01T08:03:04;29.83;;;15.32;;
45326;SDS011;31062;49.678;24.560;2023-03-01T08:05:52;28.42;;;13.02;;
45326;SDS011;31062;49.678;24.560;2023-03-01T08:08:38;24.92;;;11.25;;
45326;SDS011;31062;49.678;24.560;2023-03-01T08:11:23;24.23;;;13.25;;
45326;SDS011;31062;49.678;24.560;2023-03-01T08:14:09;22.90;;;12.00;;
45326;SDS011;31062;49.678;24.560;2023-03-01T08:16:55;29.17;;;12.43;;
45326;SDS011;31062;49.678;24.560;2023-03-01T08:19:42;26.92;;;14.15;;
45326;SDS011;31062;49.678;24.560;2023-03-01T08:22:28;22.92;;;12.52;;
45326;SDS011;31062;49.678;24.560;2023-03-01T08:25:13;26.90;;;13.20;;
45326;SDS011;31062;49.678;24.560;2023-03-01T08:28:00;27.63;;;15.13;;
45326;SDS011;31062;49.678;24.560;2023-03-01T08:30:46;18.85;;;11.52;;
45326;SDS011;31062;49.678;24.560;2023-03-01T08:33:32;18.63;;;12.48;;
45326;SDS011;31062;49.678;24.560;2023-03-01T08:36:18;22.88;;;12.80;;
45326;SDS011;31062;49.678;24.560;2023-03-01T08:39:06;26.60;;;13.77;;
45326;SDS011;31062;49.678;24.560;2023-03-01T08:41:53;31.20;;;15.23;;
45326;SDS011;31062;49.678;24.560;2023-03-01T08:44:39;27.67;;;14.10;;
45326;SDS011;31062;49.678;24.560;2023-03-01T08:47:24;34.13;;;15.32;;
45326;SDS011;31062;49.678;24.560;2023-03-01T08:50:12;31.23;;;14.50;;
45326;SDS011;31062;49.678;24.560;2023-03-01T08:52:58;29.60;;;13.93;;
45326;SDS011;31062;49.678;24.560;2023-03-01T08:55:44;27.90;;;11.13;;
45326;SDS011;31062;49.678;24.560;2023-03-01T08:58:29;32.88;;;13.13;;
45326;SDS011;31062;49.678;24.560;2023-03-01T09:01:16;22.23;;;11.50;;
45326;SDS011;31062;49.678;24.560;2023-03-01T09:04:04;19.77;;;10.95;;
45326;SDS011;31062;49.678;24.560;2023-03-01T09:06:50;24.75;;;13.52;;
45326;SDS011;31062;49.678;24.560;2023-03-01T09:09:36;23.90;;;13.13;;
45326;SDS011;31062;49.678;24.560;2023-03-01T09:12:22;26.95;;;13.48;;
45326;SDS011;31062;49.678;24.560;2023-03-01T09:15:10;26.50;;;14.05;;
45326;SDS011;31062;49.678;24.560;2023-03-01T09:17:55;27.60;;;14.90;;
45326;SDS011;31062;49.678;24.560;2023-03-01T09:20:41;17.85;;;9.18;;
45326;SDS011;31062;49.678;24.560;2023-03-01T09:23:26;28.67;;;13.63;;
45326;SDS011;31062;49.678;24.560;2023-03-01T09:26:16;24.30;;;12.55;;
45326;SDS011;31062;49.678;24.560;2023-03-01T09:29:07;28.98;;;12.65;;
45326;SDS011;31062;49.678;24.560;2023-03-01T09:31:56;23.73;;;12.95;;
45326;SDS011;31062;49.678;24.560;2023-03-01T09:34:45;22.75;;;11.90;;
45326;SDS011;31062;49.678;24.560;2023-03-01T09:37:50;28.20;;;14.77;;
45326;SDS011;31062;49.678;24.560;2023-03-01T09:40:41;21.80;;;12.93;;
45326;SDS011;31062;49.678;24.560;2023-03-01T09:46:43;31.20;;;15.50;;
45326;SDS011;31062;49.678;24.560;2023-03-01T09:49:39;31.30;;;15.80;;
45326;SDS011;31062;49.678;24.560;2023-03-01T09:52:33;33.15;;;17.17;;
45326;SDS011;31062;49.678;24.560;2023-03-01T09:58:59;31.85;;;13.82;;
45326;SDS011;31062;49.678;24.560;2023-03-01T10:05:10;24.50;;;11.93;;
45326;SDS011;31062;49.678;24.560;2023-03-01T10:14:15;25.27;;;11.13;;
45326;SDS011;31062;49.678;24.560;2023-03-01T10:17:23;17.05;;;8.60;;
45326;SDS011;31062;49.678;24.560;2023-03-01T10:23:13;18.20;;;9.73;;
45326;SDS011;31062;49.678;24.560;2023-03-01T10:29:09;54.22;;;24.30;;
45326;SDS011;31062;49.678;24.560;2023-03-01T10:31:56;40.72;;;18.80;;
45326;SDS011;31062;49.678;24.560;2023-03-01T10:34:42;112.38;;;54.58;;
45326;SDS011;31062;49.678;24.560;2023-03-01T10:37:28;151.05;;;54.15;;
45326;SDS011;31062;49.678;24.560;2023-03-01T10:40:18;386.20;;;158.68;;
45326;SDS011;31062;49.678;24.560;2023-03-01T10:43:05;494.27;;;131.63;;
45326;SDS011;31062;49.678;24.560;2023-03-01T10:45:51;469.30;;;163.45;;
45326;SDS011;31062;49.678;24.560;2023-03-01T10:48:37;432.05;;;125.35;;
45326;SDS011;31062;49.678;24.560;2023-03-01T10:51:23;93.20;;;47.33;;
45326;SDS011;31062;49.678;24.560;2023-03-01T10:54:52;52.85;;;30.00;;
45326;SDS011;31062;49.678;24.560;2023-03-01T10:57:52;149.90;;;53.90;;
45326;SDS011;31062;49.678;24.560;2023-03-01T11:00:30;130.97;;;51.90;;
45326;SDS011;31062;49.678;24.560;2023-03-01T11:03:17;147.88;;;46.33;;
45326;SDS011;31062;49.678;24.560;2023-03-01T11:09:01;520.08;;;169.32;;
45326;SDS011;31062;49.678;24.560;2023-03-01T11:12:04;74.53;;;33.47;;
45326;SDS011;31062;49.678;24.560;2023-03-01T11:14:59;88.38;;;42.33;;
45326;SDS011;31062;49.678;24.560;2023-03-01T11:17:44;21.30;;;13.52;;
45326;SDS011;31062;49.678;24.560;2023-03-01T11:20:40;13.00;;;9.02;;
45326;SDS011;31062;49.678;24.560;2023-03-01T11:23:27;14.95;;;8.70;;
45326;SDS011;31062;49.678;24.560;2023-03-01T11:26:14;13.10;;;7.90;;
45326;SDS011;31062;49.678;24.560;2023-03-01T11:29:13;14.68;;;8.18;;
45326;SDS011;31062;49.678;24.560;2023-03-01T11:32:11;10.85;;;6.55;;
45326;SDS011;31062;49.678;24.560;2023-03-01T11:35:10;17.45;;;9.48;;
45326;SDS011;31062;49.678;24.560;2023-03-01T11:44:01;20.70;;;11.35;;
45326;SDS011;31062;49.678;24.560;2023-03-01T11:47:11;12.57;;;7.78;;
45326;SDS011;31062;49.678;24.560;2023-03-01T11:55:58;18.05;;;8.88;;
45326;SDS011;31062;49.678;24.560;2023-03-01T11:58:54;10.70;;;6.80;;
45326;SDS011;31062;49.678;24.560;2023-03-01T12:01:48;24.65;;;12.15;;
45326;SDS011;31062;49.678;24.560;2023-03-01T12:10:20;17.42;;;9.25;;
45326;SDS011;31062;49.678;24.560;2023-03-01T12:13:27;22.30;;;11.13;;
45326;SDS011;31062;49.678;24.560;2023-03-01T12:22:25;12.88;;;7.90;;
45326;SDS011;31062;49.678;24.560;2023-03-01T12:25:24;12.23;;;8.45;;
45326;SDS011;31062;49.678;24.560;2023-03-01T12:53:26;16.17;;;7.53;;
45326;SDS011;31062;49.678;24.560;2023-03-01T12:56:34;13.82;;;8.32;;
45326;SDS011;31062;49.678;24.560;2023-03-01T13:02:39;31.42;;;13.10;;
45326;SDS011;31062;49.678;24.560;2023-03-01T13:08:31;17.10;;;8.05;;
45326;SDS011;31062;49.678;24.560;2023-03-01T13:11:26;19.20;;;8.82;;
45326;SDS011;31062;49.678;24.560;2023-03-01T13:17:20;25.05;;;9.80;;
45326;SDS011;31062;49.678;24.560;2023-03-01T13:20:20;12.02;;;8.27;;
45326;SDS011;31062;49.678;24.560;2023-03-01T13:23:13;15.77;;;8.75;;
45326;SDS011;31062;49.678;24.560;2023-03-01T13:29:00;9.30;;;6.65;;
45326;SDS011;31062;49.678;24.560;2023-03-01T13:34:42;9.77;;;6.45;;
45326;SDS011;31062;49.678;24.560;2023-03-01T13:37:38;8.18;;;6.10;;
45326;SDS011;31062;49.678;24.560;2023-03-01T13:43:26;16.38;;;6.60;;
45326;SDS011;31062;49.678;24.560;2023-03-01T13:49:09;12.05;;;6.63;;
45326;SDS011;31062;49.678;24.560;2023-03-01T13:52:01;8.63;;;6.15;;
45326;SDS011;31062;49.678;24.560;2023-03-01T13:54:48;9.15;;;6.25;;
45326;SDS011;31062;49.678;24.560;2023-03-01T13:57:34;10.13;;;6.70;;
45326;SDS011;31062;49.678;24.560;2023-03-01T14:00:25;13.90;;;6.55;;
45326;SDS011;31062;49.678;24.560;2023-03-01T14:03:16;12.75;;;4.40;;
45326;SDS011;31062;49.678;24.560;2023-03-01T14:06:09;11.57;;;7.53;;
45326;SDS011;31062;49.678;24.560;2023-03-01T14:12:12;11.35;;;6.47;;
45326;SDS011;31062;49.678;24.560;2023-03-01T14:20:58;10.60;;;6.68;;
45326;SDS011;31062;49.678;24.560;2023-03-01T14:23:47;15.10;;;8.40;;
45326;SDS011;31062;49.678;24.560;2023-03-01T14:26:33;13.60;;;7.05;;
45326;SDS011;31062;49.678;24.560;2023-03-01T14:29:35;13.30;;;7.05;;
45326;SDS011;31062;49.678;24.560;2023-03-01T14:32:25;10.73;;;6.03;;
45326;SDS011;31062;49.678;24.560;2023-03-01T14:35:19;11.02;;;6.35;;
45326;SDS011;31062;49.678;24.560;2023-03-01T14:38:19;16.40;;;6.90;;
45326;SDS011;31062;49.678;24.560;2023-03-01T14:41:10;11.25;;;7.28;;
45326;SDS011;31062;49.678;24.560;2023-03-01T14:44:05;13.82;;;7.40;;
45326;SDS011;31062;49.678;24.560;2023-03-01T14:46:57;9.30;;;6.18;;
45326;SDS011;31062;49.678;24.560;2023-03-01T14:49:42;10.38;;;6.60;;
45326;SDS011;31062;49.678;24.560;2023-03-01T14:52:31;10.48;;;6.57;;
45326;SDS011;31062;49.678;24.560;2023-03-01T14:55:27;12.05;;;6.93;;
45326;SDS011;31062;49.678;24.560;2023-03-01T14:58:18;9.82;;;5.90;;
45326;SDS011;31062;49.678;24.560;2023-03-01T15:01:06;13.07;;;7.32;;
45326;SDS011;31062;49.678;24.560;2023-03-01T15:03:59;10.50;;;6.55;;
45326;SDS011;31062;49.678;24.560;2023-03-01T15:06:47;14.30;;;6.38;;
45326;SDS011;31062;49.678;24.560;2023-03-01T15:09:36;10.43;;;6.32;;
45326;SDS011;31062;49.678;24.560;2023-03-01T15:15:22;9.43;;;5.95;;
45326;SDS011;31062;49.678;24.560;2023-03-01T15:18:19;12.45;;;6.70;;
45326;SDS011;31062;49.678;24.560;2023-03-01T15:21:17;10.88;;;5.88;;
45326;SDS011;31062;49.678;24.560;2023-03-01T15:27:05;11.27;;;5.32;;
45326;SDS011;31062;49.678;24.560;2023-03-01T15:29:56;8.45;;;5.80;;
45326;SDS011;31062;49.678;24.560;2023-03-01T15:32:47;9.30;;;5.82;;
45326;SDS011;31062;49.678;24.560;2023-03-01T15:35:43;10.35;;;6.07;;
45326;SDS011;31062;49.678;24.560;2023-03-01T15:38:49;8.95;;;4.97;;
45326;SDS011;31062;49.678;24.560;2023-03-01T15:41:46;8.70;;;5.20;;
45326;SDS011;31062;49.678;24.560;2023-03-01T15:44:37;8.82;;;4.63;;
45326;SDS011;31062;49.678;24.560;2023-03-01T15:47:30;9.40;;;4.90;;
45326;SDS011;31062;49.678;24.560;2023-03-01T15:50:27;9.38;;;5.57;;
45326;SDS011;31062;49.678;24.560;2023-03-01T15:53:19;14.60;;;5.03;;
45326;SDS011;31062;49.678;24.560;2023-03-01T15:56:05;11.45;;;6.70;;
45326;SDS011;31062;49.678;24.560;2023-03-01T15:58:52;18.45;;;7.38;;
45326;SDS011;31062;49.678;24.560;2023-03-01T16:01:38;14.73;;;9.60;;
45326;SDS011;31062;49.678;24.560;2023-03-01T16:04:25;20.05;;;9.55;;
45326;SDS011;31062;49.678;24.560;2023-03-01T16:07:13;16.13;;;9.32;;
45326;SDS011;31062;49.678;24.560;2023-03-01T16:10:00;19.60;;;9.13;;
45326;SDS011;31062;49.678;24.560;2023-03-01T16:12:46;19.38;;;9.40;;
45326;SDS011;31062;49.678;24.560;2023-03-01T16:15:36;35.13;;;12.73;;
45326;SDS011;31062;49.678;24.560;2023-03-01T16:18:22;17.23;;;10.38;;
45326;SDS011;31062;49.678;24.560;2023-03-01T16:21:10;21.35;;;11.15;;
45326;SDS011;31062;49.678;24.560;2023-03-01T16:23:58;22.95;;;11.10;;
45326;SDS011;31062;49.678;24.560;2023-03-01T16:26:45;109.05;;;26.65;;
45326;SDS011;31062;49.678;24.560;2023-03-01T16:29:30;106.22;;;32.35;;
45326;SDS011;31062;49.678;24.560;2023-03-01T16:32:17;191.73;;;53.55;;
45326;SDS011;31062;49.678;24.560;2023-03-01T16:35:14;170.55;;;50.53;;
45326;SDS011;31062;49.678;24.560;2023-03-01T16:38:03;126.93;;;36.90;;
45326;SDS011;31062;49.678;24.560;2023-03-01T16:40:53;38.72;;;15.85;;
45326;SDS011;31062;49.678;24.560;2023-03-01T16:43:39;24.70;;;13.63;;
45326;SDS011;31062;49.678;24.560;2023-03-01T16:46:26;23.00;;;12.13;;
45326;SDS011;31062;49.678;24.560;2023-03-01T16:49:13;30.08;;;12.77;;
45326;SDS011;31062;49.678;24.560;2023-03-01T16:51:58;23.65;;;11.02;;
45326;SDS011;31062;49.678;24.560;2023-03-01T16:54:44;21.10;;;10.82;;
45326;SDS011;31062;49.678;24.560;2023-03-01T16:57:30;17.77;;;10.40;;
45326;SDS011;31062;49.678;24.560;2023-03-01T17:00:16;15.07;;;8.07;;
45326;SDS011;31062;49.678;24.560;2023-03-01T17:03:03;16.55;;;7.75;;
45326;SDS011;31062;49.678;24.560;2023-03-01T17:05:49;17.10;;;10.25;;
45326;SDS011;31062;49.678;24.560;2023-03-01T17:08:36;26.73;;;14.27;;
45326;SDS011;31062;49.678;24.560;2023-03-01T17:11:22;35.88;;;17.73;;
45326;SDS011;31062;49.678;24.560;2023-03-01T17:14:08;42.33;;;19.25;;
45326;SDS011;31062;49.678;24.560;2023-03-01T17:16:55;45.75;;;20.05;;
45326;SDS011;31062;49.678;24.560;2023-03-01T17:19:41;53.65;;;21.73;;
45326;SDS011;31062;49.678;24.560;2023-03-01T17:22:28;55.65;;;23.92;;
45326;SDS011;31062;49.678;24.560;2023-03-01T17:25:14;44.20;;;20.92;;
45326;SDS011;31062;49.678;24.560;2023-03-01T17:28:00;29.92;;;14.40;;
45326;SDS011;31062;49.678;24.560;2023-03-01T17:30:45;53.40;;;20.83;;
45326;SDS011;31062;49.678;24.560;2023-03-01T17:33:32;26.88;;;15.25;;
45326;SDS011;31062;49.678;24.560;2023-03-01T17:36:17;27.83;;;10.98;;
45326;SDS011;31062;49.678;24.560;2023-03-01T17:39:05;25.67;;;11.55;;
45326;SDS011;31062;49.678;24.560;2023-03-01T17:41:51;25.83;;;11.35;;
45326;SDS011;31062;49.678;24.560;2023-03-01T17:44:37;34.15;;;15.00;;
45326;SDS011;31062;49.678;24.560;2023-03-01T17:47:23;38.22;;;17.27;;
45326;SDS011;31062;49.678;24.560;2023-03-01T17:50:08;39.05;;;16.95;;
45326;SDS011;31062;49.678;24.560;2023-03-01T17:52:54;46.78;;;18.70;;
45326;SDS011;31062;49.678;24.560;2023-03-01T17:55:40;43.88;;;20.58;;
45326;SDS011;31062;49.678;24.560;2023-03-01T17:58:28;52.55;;;22.92;;
45326;SDS011;31062;49.678;24.560;2023-03-01T18:01:17;53.03;;;21.48;;
45326;SDS011;31062;49.678;24.560;2023-03-01T18:04:16;57.28;;;23.90;;
45326;SDS011;31062;49.678;24.560;2023-03-01T18:07:09;55.25;;;22.27;;
45326;SDS011;31062;49.678;24.560;2023-03-01T18:09:56;65.90;;;24.83;;
45326;SDS011;31062;49.678;24.560;2023-03-01T18:12:42;56.38;;;22.15;;
45326;SDS011;31062;49.678;24.560;2023-03-01T18:15:28;44.40;;;19.77;;
45326;SDS011;31062;49.678;24.560;2023-03-01T18:18:13;29.20;;;15.35;;
45326;SDS011;31062;49.678;24.560;2023-03-01T18:21:00;20.67;;;10.43;;